sensor_id;sensor_type;location;lat;lon;timestamp;temperature;humidity
24408;DHT22;12542;50.924;4.516;2023-08-31T00:02:06;13.50;99.90
24408;DHT22;12542;50.924;4.516;2023-08-31T00:04:32;13.50;99.90
24408;DHT22;12542;50.924;4.516;2023-08-31T00:06:58;13.40;99.90
24408;DHT22;12542;50.924;4.516;2023-08-31T00:09:24;13.30;99.90
24408;DHT22;12542;50.924;4.516;2023-08-31T00:11:51;13.30;99.90
24408;DHT22;12542;50.924;4.516;2023-08-31T00:14:17;13.30;99.90
24408;DHT22;12542;50.924;4.516;2023-08-31T00:16:43;13.40;99.90
24408;DHT22;12542;50.924;4.516;2023-08-31T00:19:12;13.50;99.90
24408;DHT22;12542;50.924;4.516;2023-08-31T00:21:39;13.40;99.90
24408;DHT22;12542;50.924;4.516;2023-08-31T00:24:04;13.50;99.90
24408;DHT22;12542;50.924;4.516;2023-08-31T00:26:30;13.50;99.90
24408;DHT22;12542;50.924;4.516;2023-08-31T00:28:57;13.40;99.90
24408;DHT22;12542;50.924;4.516;2023-08-31T00:31:23;13.40;99.90
24408;DHT22;12542;50.924;4.516;2023-08-31T00:33:49;13.40;99.90
24408;DHT22;12542;50.924;4.516;2023-08-31T00:36:15;13.50;99.90
24408;DHT22;12542;50.924;4.516;2023-08-31T00:38:43;13.60;99.90
24408;DHT22;12542;50.924;4.516;2023-08-31T00:41:10;13.50;99.90
24408;DHT22;12542;50.924;4.516;2023-08-31T00:43:35;13.60;99.90
24408;DHT22;12542;50.924;4.516;2023-08-31T00:46:02;13.70;99.90
24408;DHT22;12542;50.924;4.516;2023-08-31T00:48:28;13.80;99.90
24408;DHT22;12542;50.924;4.516;2023-08-31T00:50:54;13.80;99.90
24408;DHT22;12542;50.924;4.516;2023-08-31T00:53:20;13.70;99.90
24408;DHT22;12542;50.924;4.516;2023-08-31T00:55:46;13.70;99.90
24408;DHT22;12542;50.924;4.516;2023-08-31T00:58:13;13.70;99.90
24408;DHT22;12542;50.924;4.516;2023-08-31T01:01:03;13.70;99.90
24408;DHT22;12542;50.924;4.516;2023-08-31T01:06:27;13.60;99.90
24408;DHT22;12542;50.924;4.516;2023-08-31T01:09:16;13.70;99.90
24408;DHT22;12542;50.924;4.516;2023-08-31T01:11:54;13.60;99.90
24408;DHT22;12542;50.924;4.516;2023-08-31T01:14:25;13.70;99.90
24408;DHT22;12542;50.924;4.516;2023-08-31T01:16:53;13.50;99.90
24408;DHT22;12542;50.924;4.516;2023-08-31T01:19:50;13.60;99.90
24408;DHT22;12542;50.924;4.516;2023-08-31T01:25:01;13.50;99.90
24408;DHT22;12542;50.924;4.516;2023-08-31T01:27:31;13.60;99.90
24408;DHT22;12542;50.924;4.516;2023-08-31T01:29:58;13.50;99.90
24408;DHT22;12542;50.924;4.516;2023-08-31T01:32:25;13.60;99.90
24408;DHT22;12542;50.924;4.516;2023-08-31T01:34:52;13.60;99.90
24408;DHT22;12542;50.924;4.516;2023-08-31T01:37:24;13.50;99.90
24408;DHT22;12542;50.924;4.516;2023-08-31T01:39:58;13.50;99.90
24408;DHT22;12542;50.924;4.516;2023-08-31T01:42:26;13.50;99.90
24408;DHT22;12542;50.924;4.516;2023-08-31T01:44:56;13.60;99.90
24408;DHT22;12542;50.924;4.516;2023-08-31T01:47:23;13.60;99.90
24408;DHT22;12542;50.924;4.516;2023-08-31T01:49:48;13.50;99.90
24408;DHT22;12542;50.924;4.516;2023-08-31T01:52:14;13.60;99.90
24408;DHT22;12542;50.924;4.516;2023-08-31T01:54:40;13.60;99.90
24408;DHT22;12542;50.924;4.516;2023-08-31T01:57:06;13.60;99.90
24408;DHT22;12542;50.924;4.516;2023-08-31T01:59:32;13.50;99.90
24408;DHT22;12542;50.924;4.516;2023-08-31T02:01:58;13.50;99.90
24408;DHT22;12542;50.924;4.516;2023-08-31T02:04:24;13.60;99.90
24408;DHT22;12542;50.924;4.516;2023-08-31T02:06:49;13.60;99.90
24408;DHT22;12542;50.924;4.516;2023-08-31T02:09:15;13.60;99.90
24408;DHT22;12542;50.924;4.516;2023-08-31T02:11:41;13.50;99.90
24408;DHT22;12542;50.924;4.516;2023-08-31T02:14:06;13.50;99.90
24408;DHT22;12542;50.924;4.516;2023-08-31T02:16:33;13.50;99.90
24408;DHT22;12542;50.924;4.516;2023-08-31T02:18:59;13.50;99.90
24408;DHT22;12542;50.924;4.516;2023-08-31T02:21:25;13.50;99.90
24408;DHT22;12542;50.924;4.516;2023-08-31T02:23:50;13.50;99.90
24408;DHT22;12542;50.924;4.516;2023-08-31T02:26:16;13.50;99.90
24408;DHT22;12542;50.924;4.516;2023-08-31T02:28:42;13.60;99.90
24408;DHT22;12542;50.924;4.516;2023-08-31T02:31:09;13.60;99.90
24408;DHT22;12542;50.924;4.516;2023-08-31T02:33:35;13.60;99.90
24408;DHT22;12542;50.924;4.516;2023-08-31T02:36:01;13.50;99.90
24408;DHT22;12542;50.924;4.516;2023-08-31T02:38:27;13.60;99.90
24408;DHT22;12542;50.924;4.516;2023-08-31T02:40:53;13.60;99.90
24408;DHT22;12542;50.924;4.516;2023-08-31T02:43:18;13.60;99.90
24408;DHT22;12542;50.924;4.516;2023-08-31T02:45:44;13.70;99.90
24408;DHT22;12542;50.924;4.516;2023-08-31T02:48:10;13.60;99.90
24408;DHT22;12542;50.924;4.516;2023-08-31T02:50:36;13.60;99.90
24408;DHT22;12542;50.924;4.516;2023-08-31T02:53:02;13.60;99.90
24408;DHT22;12542;50.924;4.516;2023-08-31T02:55:28;13.60;99.90
24408;DHT22;12542;50.924;4.516;2023-08-31T02:57:54;13.60;99.90
24408;DHT22;12542;50.924;4.516;2023-08-31T03:00:20;13.70;99.90
24408;DHT22;12542;50.924;4.516;2023-08-31T03:02:48;13.70;99.90
24408;DHT22;12542;50.924;4.516;2023-08-31T03:05:17;13.60;99.90
24408;DHT22;12542;50.924;4.516;2023-08-31T03:07:43;13.70;99.90
24408;DHT22;12542;50.924;4.516;2023-08-31T03:10:09;13.70;99.90
24408;DHT22;12542;50.924;4.516;2023-08-31T03:12:35;13.80;99.90
24408;DHT22;12542;50.924;4.516;2023-08-31T03:15:01;13.90;99.90
24408;DHT22;12542;50.924;4.516;2023-08-31T03:17:28;13.80;99.90
24408;DHT22;12542;50.924;4.516;2023-08-31T03:19:53;13.70;99.90
24408;DHT22;12542;50.924;4.516;2023-08-31T03:22:19;13.80;99.90
24408;DHT22;12542;50.924;4.516;2023-08-31T03:24:45;13.80;99.90
24408;DHT22;12542;50.924;4.516;2023-08-31T03:27:10;13.80;99.90
24408;DHT22;12542;50.924;4.516;2023-08-31T03:29:36;13.80;99.90
24408;DHT22;12542;50.924;4.516;2023-08-31T03:32:02;13.80;99.90
24408;DHT22;12542;50.924;4.516;2023-08-31T03:34:31;13.90;99.90
24408;DHT22;12542;50.924;4.516;2023-08-31T03:36:58;13.90;99.90
24408;DHT22;12542;50.924;4.516;2023-08-31T03:39:24;14.00;99.90
24408;DHT22;12542;50.924;4.516;2023-08-31T03:41:50;14.00;99.90
24408;DHT22;12542;50.924;4.516;2023-08-31T03:44:16;14.00;99.90
24408;DHT22;12542;50.924;4.516;2023-08-31T03:46:42;14.00;99.90
24408;DHT22;12542;50.924;4.516;2023-08-31T03:49:08;14.00;99.90
24408;DHT22;12542;50.924;4.516;2023-08-31T03:51:34;14.00;99.90
24408;DHT22;12542;50.924;4.516;2023-08-31T03:54:00;13.90;99.90
24408;DHT22;12542;50.924;4.516;2023-08-31T03:56:25;14.00;99.90
24408;DHT22;12542;50.924;4.516;2023-08-31T03:58:52;14.00;99.90
24408;DHT22;12542;50.924;4.516;2023-08-31T04:01:18;13.90;99.90
24408;DHT22;12542;50.924;4.516;2023-08-31T04:03:46;13.90;99.90
24408;DHT22;12542;50.924;4.516;2023-08-31T04:06:11;13.90;99.90
24408;DHT22;12542;50.924;4.516;2023-08-31T04:08:37;13.90;99.90
24408;DHT22;12542;50.924;4.516;2023-08-31T04:11:03;13.90;99.90
24408;DHT22;12542;50.924;4.516;2023-08-31T04:13:28;13.80;99.90
24408;DHT22;12542;50.924;4.516;2023-08-31T04:15:54;13.80;99.90
24408;DHT22;12542;50.924;4.516;2023-08-31T04:18:21;13.80;99.90
24408;DHT22;12542;50.924;4.516;2023-08-31T04:20:52;13.80;99.90
24408;DHT22;12542;50.924;4.516;2023-08-31T04:23:21;13.70;99.90
24408;DHT22;12542;50.924;4.516;2023-08-31T04:25:49;13.70;99.90
24408;DHT22;12542;50.924;4.516;2023-08-31T04:28:17;13.70;99.90
24408;DHT22;12542;50.924;4.516;2023-08-31T04:30:42;13.80;99.90
24408;DHT22;12542;50.924;4.516;2023-08-31T04:33:10;13.70;99.90
24408;DHT22;12542;50.924;4.516;2023-08-31T04:35:36;13.70;99.90
24408;DHT22;12542;50.924;4.516;2023-08-31T04:38:01;13.80;99.90
24408;DHT22;12542;50.924;4.516;2023-08-31T04:40:28;13.60;99.90
24408;DHT22;12542;50.924;4.516;2023-08-31T04:42:54;13.60;99.90
24408;DHT22;12542;50.924;4.516;2023-08-31T04:45:20;13.60;99.90
24408;DHT22;12542;50.924;4.516;2023-08-31T04:47:46;13.60;99.90
24408;DHT22;12542;50.924;4.516;2023-08-31T04:50:11;13.60;99.90
24408;DHT22;12542;50.924;4.516;2023-08-31T04:52:39;13.60;99.90
24408;DHT22;12542;50.924;4.516;2023-08-31T04:55:06;13.60;99.90
24408;DHT22;12542;50.924;4.516;2023-08-31T04:57:38;13.70;99.90
24408;DHT22;12542;50.924;4.516;2023-08-31T05:00:06;13.70;99.90
24408;DHT22;12542;50.924;4.516;2023-08-31T05:02:35;13.70;99.90
24408;DHT22;12542;50.924;4.516;2023-08-31T05:05:01;13.80;99.90
24408;DHT22;12542;50.924;4.516;2023-08-31T05:07:26;13.80;99.90
24408;DHT22;12542;50.924;4.516;2023-08-31T05:09:52;13.80;99.90
24408;DHT22;12542;50.924;4.516;2023-08-31T05:12:18;13.80;99.90
24408;DHT22;12542;50.924;4.516;2023-08-31T05:14:43;13.80;99.90
24408;DHT22;12542;50.924;4.516;2023-08-31T05:17:09;13.90;99.90
24408;DHT22;12542;50.924;4.516;2023-08-31T05:19:35;13.90;99.90
24408;DHT22;12542;50.924;4.516;2023-08-31T05:22:00;14.00;99.90
24408;DHT22;12542;50.924;4.516;2023-08-31T05:24:26;14.00;99.90
24408;DHT22;12542;50.924;4.516;2023-08-31T05:26:54;14.20;99.90
24408;DHT22;12542;50.924;4.516;2023-08-31T05:29:20;14.40;99.90
24408;DHT22;12542;50.924;4.516;2023-08-31T05:31:45;14.50;99.90
24408;DHT22;12542;50.924;4.516;2023-08-31T05:34:16;14.50;99.90
24408;DHT22;12542;50.924;4.516;2023-08-31T05:36:43;14.70;99.90
24408;DHT22;12542;50.924;4.516;2023-08-31T05:39:10;15.30;99.90
24408;DHT22;12542;50.924;4.516;2023-08-31T05:41:36;16.60;99.90
24408;DHT22;12542;50.924;4.516;2023-08-31T05:44:02;18.00;99.90
24408;DHT22;12542;50.924;4.516;2023-08-31T05:46:27;19.50;99.90
24408;DHT22;12542;50.924;4.516;2023-08-31T05:48:53;20.80;99.90
24408;DHT22;12542;50.924;4.516;2023-08-31T05:51:19;21.80;99.90
24408;DHT22;12542;50.924;4.516;2023-08-31T05:53:45;22.80;99.90
24408;DHT22;12542;50.924;4.516;2023-08-31T05:56:10;23.10;99.90
24408;DHT22;12542;50.924;4.516;2023-08-31T05:58:36;23.60;99.90
24408;DHT22;12542;50.924;4.516;2023-08-31T06:01:04;24.30;99.90
24408;DHT22;12542;50.924;4.516;2023-08-31T06:03:30;25.10;99.90
24408;DHT22;12542;50.924;4.516;2023-08-31T06:05:57;25.50;99.90
24408;DHT22;12542;50.924;4.516;2023-08-31T06:08:23;25.80;99.90
24408;DHT22;12542;50.924;4.516;2023-08-31T06:10:51;25.90;99.90
24408;DHT22;12542;50.924;4.516;2023-08-31T06:13:17;26.50;99.90
24408;DHT22;12542;50.924;4.516;2023-08-31T06:15:42;27.00;99.90
24408;DHT22;12542;50.924;4.516;2023-08-31T06:18:10;26.70;99.50
24408;DHT22;12542;50.924;4.516;2023-08-31T06:20:35;26.90;99.90
24408;DHT22;12542;50.924;4.516;2023-08-31T06:23:04;26.60;99.90
24408;DHT22;12542;50.924;4.516;2023-08-31T06:25:29;26.90;99.90
24408;DHT22;12542;50.924;4.516;2023-08-31T06:27:55;27.50;99.50
24408;DHT22;12542;50.924;4.516;2023-08-31T06:30:21;28.10;98.20
24408;DHT22;12542;50.924;4.516;2023-08-31T06:32:47;28.30;96.90
24408;DHT22;12542;50.924;4.516;2023-08-31T06:35:14;28.90;97.10
24408;DHT22;12542;50.924;4.516;2023-08-31T06:37:43;29.30;96.10
24408;DHT22;12542;50.924;4.516;2023-08-31T06:40:10;28.50;96.20
24408;DHT22;12542;50.924;4.516;2023-08-31T06:42:36;27.30;97.70
24408;DHT22;12542;50.924;4.516;2023-08-31T06:45:06;26.90;98.80
24408;DHT22;12542;50.924;4.516;2023-08-31T06:47:32;27.90;98.30
24408;DHT22;12542;50.924;4.516;2023-08-31T06:49:58;28.70;95.90
24408;DHT22;12542;50.924;4.516;2023-08-31T06:52:25;29.60;93.80
24408;DHT22;12542;50.924;4.516;2023-08-31T06:54:51;30.10;93.90
24408;DHT22;12542;50.924;4.516;2023-08-31T06:57:25;30.20;92.70
24408;DHT22;12542;50.924;4.516;2023-08-31T06:59:51;30.80;92.00
24408;DHT22;12542;50.924;4.516;2023-08-31T07:02:16;30.70;91.60
24408;DHT22;12542;50.924;4.516;2023-08-31T07:04:47;30.00;92.20
24408;DHT22;12542;50.924;4.516;2023-08-31T07:07:14;30.00;91.90
24408;DHT22;12542;50.924;4.516;2023-08-31T07:09:44;30.00;92.70
24408;DHT22;12542;50.924;4.516;2023-08-31T07:12:10;29.10;93.40
24408;DHT22;12542;50.924;4.516;2023-08-31T07:14:36;29.00;94.80
24408;DHT22;12542;50.924;4.516;2023-08-31T07:17:01;29.20;93.10
24408;DHT22;12542;50.924;4.516;2023-08-31T07:19:27;29.20;93.70
24408;DHT22;12542;50.924;4.516;2023-08-31T07:21:53;28.70;94.30
24408;DHT22;12542;50.924;4.516;2023-08-31T07:24:22;28.40;93.40
24408;DHT22;12542;50.924;4.516;2023-08-31T07:26:50;27.60;95.80
24408;DHT22;12542;50.924;4.516;2023-08-31T07:29:15;27.30;97.70
24408;DHT22;12542;50.924;4.516;2023-08-31T07:31:44;27.70;96.20
24408;DHT22;12542;50.924;4.516;2023-08-31T07:34:09;27.70;96.60
24408;DHT22;12542;50.924;4.516;2023-08-31T07:36:35;28.30;96.30
24408;DHT22;12542;50.924;4.516;2023-08-31T07:39:01;28.20;95.80
24408;DHT22;12542;50.924;4.516;2023-08-31T07:41:28;28.90;95.00
24408;DHT22;12542;50.924;4.516;2023-08-31T07:43:53;28.90;95.60
24408;DHT22;12542;50.924;4.516;2023-08-31T07:46:19;29.10;95.10
24408;DHT22;12542;50.924;4.516;2023-08-31T07:48:44;29.10;95.00
24408;DHT22;12542;50.924;4.516;2023-08-31T07:51:10;29.50;93.80
24408;DHT22;12542;50.924;4.516;2023-08-31T07:53:36;29.40;95.00
24408;DHT22;12542;50.924;4.516;2023-08-31T07:56:01;29.40;95.00
24408;DHT22;12542;50.924;4.516;2023-08-31T07:58:27;29.00;94.50
24408;DHT22;12542;50.924;4.516;2023-08-31T08:00:53;29.00;94.00
24408;DHT22;12542;50.924;4.516;2023-08-31T08:03:20;28.80;94.40
24408;DHT22;12542;50.924;4.516;2023-08-31T08:05:49;28.70;94.30
24408;DHT22;12542;50.924;4.516;2023-08-31T08:08:14;28.60;95.80
24408;DHT22;12542;50.924;4.516;2023-08-31T08:10:43;28.40;96.30
24408;DHT22;12542;50.924;4.516;2023-08-31T08:13:09;28.30;95.60
24408;DHT22;12542;50.924;4.516;2023-08-31T08:15:35;28.40;95.20
24408;DHT22;12542;50.924;4.516;2023-08-31T08:18:01;28.10;95.80
24408;DHT22;12542;50.924;4.516;2023-08-31T08:20:27;27.90;95.80
24408;DHT22;12542;50.924;4.516;2023-08-31T08:22:53;27.80;97.00
24408;DHT22;12542;50.924;4.516;2023-08-31T08:25:19;27.20;97.50
24408;DHT22;12542;50.924;4.516;2023-08-31T08:27:46;27.00;97.60
24408;DHT22;12542;50.924;4.516;2023-08-31T08:30:14;26.80;98.30
24408;DHT22;12542;50.924;4.516;2023-08-31T08:32:41;27.00;98.30
24408;DHT22;12542;50.924;4.516;2023-08-31T08:35:07;26.80;99.10
24408;DHT22;12542;50.924;4.516;2023-08-31T08:37:32;26.90;99.20
24408;DHT22;12542;50.924;4.516;2023-08-31T08:39:59;26.80;98.60
24408;DHT22;12542;50.924;4.516;2023-08-31T08:42:25;27.00;99.50
24408;DHT22;12542;50.924;4.516;2023-08-31T08:44:51;26.80;99.10
24408;DHT22;12542;50.924;4.516;2023-08-31T08:47:18;26.90;98.60
24408;DHT22;12542;50.924;4.516;2023-08-31T08:49:44;26.40;98.90
24408;DHT22;12542;50.924;4.516;2023-08-31T08:52:10;26.40;99.00
24408;DHT22;12542;50.924;4.516;2023-08-31T08:54:39;26.10;99.80
24408;DHT22;12542;50.924;4.516;2023-08-31T08:57:05;25.90;99.90
24408;DHT22;12542;50.924;4.516;2023-08-31T08:59:31;26.10;99.90
24408;DHT22;12542;50.924;4.516;2023-08-31T09:01:57;26.40;99.80
24408;DHT22;12542;50.924;4.516;2023-08-31T09:04:23;26.70;99.90
24408;DHT22;12542;50.924;4.516;2023-08-31T09:06:50;26.50;99.90
24408;DHT22;12542;50.924;4.516;2023-08-31T09:09:16;26.50;99.90
24408;DHT22;12542;50.924;4.516;2023-08-31T09:11:42;26.40;99.80
24408;DHT22;12542;50.924;4.516;2023-08-31T09:14:15;25.90;99.90
24408;DHT22;12542;50.924;4.516;2023-08-31T09:16:47;26.20;99.90
24408;DHT22;12542;50.924;4.516;2023-08-31T09:19:20;26.40;99.90
24408;DHT22;12542;50.924;4.516;2023-08-31T09:21:47;26.30;99.90
24408;DHT22;12542;50.924;4.516;2023-08-31T09:24:13;26.50;99.70
24408;DHT22;12542;50.924;4.516;2023-08-31T09:26:43;26.00;99.90
24408;DHT22;12542;50.924;4.516;2023-08-31T09:29:09;26.10;99.90
24408;DHT22;12542;50.924;4.516;2023-08-31T09:31:35;26.50;99.90
24408;DHT22;12542;50.924;4.516;2023-08-31T09:34:01;26.40;99.90
24408;DHT22;12542;50.924;4.516;2023-08-31T09:36:27;26.40;99.90
24408;DHT22;12542;50.924;4.516;2023-08-31T09:38:57;26.40;99.90
24408;DHT22;12542;50.924;4.516;2023-08-31T09:41:23;26.50;99.90
24408;DHT22;12542;50.924;4.516;2023-08-31T09:43:48;26.90;99.60
24408;DHT22;12542;50.924;4.516;2023-08-31T09:46:14;27.00;99.00
24408;DHT22;12542;50.924;4.516;2023-08-31T09:48:42;26.90;99.50
24408;DHT22;12542;50.924;4.516;2023-08-31T09:51:09;27.00;99.30
24408;DHT22;12542;50.924;4.516;2023-08-31T09:53:36;26.80;98.60
24408;DHT22;12542;50.924;4.516;2023-08-31T09:56:05;26.80;98.10
24408;DHT22;12542;50.924;4.516;2023-08-31T09:58:33;26.80;99.00
24408;DHT22;12542;50.924;4.516;2023-08-31T10:01:01;27.20;99.10
24408;DHT22;12542;50.924;4.516;2023-08-31T10:03:28;27.30;99.00
24408;DHT22;12542;50.924;4.516;2023-08-31T10:05:54;27.40;97.30
24408;DHT22;12542;50.924;4.516;2023-08-31T10:08:20;27.10;96.90
24408;DHT22;12542;50.924;4.516;2023-08-31T10:10:46;26.70;98.20
24408;DHT22;12542;50.924;4.516;2023-08-31T10:13:12;26.50;98.80
24408;DHT22;12542;50.924;4.516;2023-08-31T10:15:38;26.20;98.40
24408;DHT22;12542;50.924;4.516;2023-08-31T10:18:07;26.20;98.90
24408;DHT22;12542;50.924;4.516;2023-08-31T10:20:34;26.20;99.00
24408;DHT22;12542;50.924;4.516;2023-08-31T10:23:02;26.30;98.70
24408;DHT22;12542;50.924;4.516;2023-08-31T10:28:26;26.20;99.90
24408;DHT22;12542;50.924;4.516;2023-08-31T10:33:44;26.20;99.20
24408;DHT22;12542;50.924;4.516;2023-08-31T10:38:39;26.10;99.90
24408;DHT22;12542;50.924;4.516;2023-08-31T10:48:55;26.30;99.70
24408;DHT22;12542;50.924;4.516;2023-08-31T10:51:23;26.30;99.40
24408;DHT22;12542;50.924;4.516;2023-08-31T10:53:49;26.30;98.50
24408;DHT22;12542;50.924;4.516;2023-08-31T10:56:18;26.60;99.90
24408;DHT22;12542;50.924;4.516;2023-08-31T10:59:00;26.60;98.70
24408;DHT22;12542;50.924;4.516;2023-08-31T11:04:17;26.60;97.70
24408;DHT22;12542;50.924;4.516;2023-08-31T11:06:45;26.60;98.50
24408;DHT22;12542;50.924;4.516;2023-08-31T11:09:21;26.70;98.20
24408;DHT22;12542;50.924;4.516;2023-08-31T11:11:47;26.70;98.30
24408;DHT22;12542;50.924;4.516;2023-08-31T11:14:14;26.40;98.00
24408;DHT22;12542;50.924;4.516;2023-08-31T11:16:41;25.90;97.60
24408;DHT22;12542;50.924;4.516;2023-08-31T11:19:08;25.90;99.30
24408;DHT22;12542;50.924;4.516;2023-08-31T11:21:36;26.00;99.70
24408;DHT22;12542;50.924;4.516;2023-08-31T11:24:02;25.90;98.10
24408;DHT22;12542;50.924;4.516;2023-08-31T11:26:31;25.40;98.20
24408;DHT22;12542;50.924;4.516;2023-08-31T11:28:57;25.30;99.00
24408;DHT22;12542;50.924;4.516;2023-08-31T11:31:23;25.30;99.50
24408;DHT22;12542;50.924;4.516;2023-08-31T11:33:49;24.90;99.70
24408;DHT22;12542;50.924;4.516;2023-08-31T11:36:15;25.00;98.50
24408;DHT22;12542;50.924;4.516;2023-08-31T11:38:43;25.00;99.00
24408;DHT22;12542;50.924;4.516;2023-08-31T11:41:09;25.00;99.20
24408;DHT22;12542;50.924;4.516;2023-08-31T11:43:36;25.40;97.60
24408;DHT22;12542;50.924;4.516;2023-08-31T11:46:03;25.60;98.40
24408;DHT22;12542;50.924;4.516;2023-08-31T11:48:30;26.00;97.20
24408;DHT22;12542;50.924;4.516;2023-08-31T11:50:57;26.30;97.40
24408;DHT22;12542;50.924;4.516;2023-08-31T11:53:22;26.00;98.40
24408;DHT22;12542;50.924;4.516;2023-08-31T11:55:52;26.00;98.10
24408;DHT22;12542;50.924;4.516;2023-08-31T11:58:19;26.30;98.40
24408;DHT22;12542;50.924;4.516;2023-08-31T12:00:54;26.30;98.70
24408;DHT22;12542;50.924;4.516;2023-08-31T12:03:22;26.30;98.50
24408;DHT22;12542;50.924;4.516;2023-08-31T12:05:51;26.40;99.90
24408;DHT22;12542;50.924;4.516;2023-08-31T12:08:27;26.60;97.70
24408;DHT22;12542;50.924;4.516;2023-08-31T12:10:53;26.70;97.60
24408;DHT22;12542;50.924;4.516;2023-08-31T12:13:19;26.20;96.70
24408;DHT22;12542;50.924;4.516;2023-08-31T12:15:44;25.90;98.50
24408;DHT22;12542;50.924;4.516;2023-08-31T12:18:14;25.80;98.30
24408;DHT22;12542;50.924;4.516;2023-08-31T12:21:06;25.10;96.60
24408;DHT22;12542;50.924;4.516;2023-08-31T12:23:34;24.70;98.00
24408;DHT22;12542;50.924;4.516;2023-08-31T12:26:00;24.00;98.80
24408;DHT22;12542;50.924;4.516;2023-08-31T12:28:26;23.70;98.90
24408;DHT22;12542;50.924;4.516;2023-08-31T12:30:54;23.50;99.70
24408;DHT22;12542;50.924;4.516;2023-08-31T12:33:22;23.50;99.90
24408;DHT22;12542;50.924;4.516;2023-08-31T12:35:50;23.00;99.90
24408;DHT22;12542;50.924;4.516;2023-08-31T12:38:16;23.00;99.90
24408;DHT22;12542;50.924;4.516;2023-08-31T12:40:42;23.00;99.90
24408;DHT22;12542;50.924;4.516;2023-08-31T12:43:07;23.10;99.90
24408;DHT22;12542;50.924;4.516;2023-08-31T12:45:33;23.00;99.90
24408;DHT22;12542;50.924;4.516;2023-08-31T12:47:59;22.90;99.90
24408;DHT22;12542;50.924;4.516;2023-08-31T12:50:25;22.90;99.90
24408;DHT22;12542;50.924;4.516;2023-08-31T12:52:51;23.10;99.90
24408;DHT22;12542;50.924;4.516;2023-08-31T12:55:17;23.20;99.90
24408;DHT22;12542;50.924;4.516;2023-08-31T12:57:43;23.10;99.90
24408;DHT22;12542;50.924;4.516;2023-08-31T13:00:10;23.20;99.90
24408;DHT22;12542;50.924;4.516;2023-08-31T13:02:40;23.20;99.90
24408;DHT22;12542;50.924;4.516;2023-08-31T13:05:06;23.10;99.90
24408;DHT22;12542;50.924;4.516;2023-08-31T13:07:35;22.80;99.90
24408;DHT22;12542;50.924;4.516;2023-08-31T13:10:01;23.00;99.90
24408;DHT22;12542;50.924;4.516;2023-08-31T13:12:32;23.10;99.90
24408;DHT22;12542;50.924;4.516;2023-08-31T13:14:59;23.00;99.90
24408;DHT22;12542;50.924;4.516;2023-08-31T13:17:25;23.20;99.90
24408;DHT22;12542;50.924;4.516;2023-08-31T13:19:56;23.30;99.90
24408;DHT22;12542;50.924;4.516;2023-08-31T13:22:22;23.40;99.90
24408;DHT22;12542;50.924;4.516;2023-08-31T13:24:50;23.70;99.90
24408;DHT22;12542;50.924;4.516;2023-08-31T13:27:15;23.90;99.90
24408;DHT22;12542;50.924;4.516;2023-08-31T13:29:42;23.90;99.30
24408;DHT22;12542;50.924;4.516;2023-08-31T13:32:10;23.90;99.50
24408;DHT22;12542;50.924;4.516;2023-08-31T13:34:36;23.70;97.30
24408;DHT22;12542;50.924;4.516;2023-08-31T13:37:05;23.80;98.50
24408;DHT22;12542;50.924;4.516;2023-08-31T13:39:31;23.90;99.60
24408;DHT22;12542;50.924;4.516;2023-08-31T13:41:59;23.30;97.20
24408;DHT22;12542;50.924;4.516;2023-08-31T13:44:27;23.00;98.30
24408;DHT22;12542;50.924;4.516;2023-08-31T13:46:52;23.30;99.90
24408;DHT22;12542;50.924;4.516;2023-08-31T13:49:18;23.50;99.90
24408;DHT22;12542;50.924;4.516;2023-08-31T13:51:44;23.70;99.60
24408;DHT22;12542;50.924;4.516;2023-08-31T13:54:10;23.90;99.40
24408;DHT22;12542;50.924;4.516;2023-08-31T13:56:37;24.10;98.70
24408;DHT22;12542;50.924;4.516;2023-08-31T13:59:02;23.70;99.00
24408;DHT22;12542;50.924;4.516;2023-08-31T14:01:31;23.90;99.70
24408;DHT22;12542;50.924;4.516;2023-08-31T14:03:57;23.70;99.00
24408;DHT22;12542;50.924;4.516;2023-08-31T14:06:22;23.40;99.90
24408;DHT22;12542;50.924;4.516;2023-08-31T14:08:48;23.40;99.90
24408;DHT22;12542;50.924;4.516;2023-08-31T14:11:14;23.40;99.60
24408;DHT22;12542;50.924;4.516;2023-08-31T14:13:42;23.50;99.60
24408;DHT22;12542;50.924;4.516;2023-08-31T14:16:08;23.70;99.90
24408;DHT22;12542;50.924;4.516;2023-08-31T14:18:33;23.50;99.70
24408;DHT22;12542;50.924;4.516;2023-08-31T14:20:59;23.40;99.90
24408;DHT22;12542;50.924;4.516;2023-08-31T14:23:26;22.70;99.30
24408;DHT22;12542;50.924;4.516;2023-08-31T14:25:52;22.50;99.70
24408;DHT22;12542;50.924;4.516;2023-08-31T14:28:17;22.80;99.90
24408;DHT22;12542;50.924;4.516;2023-08-31T14:30:43;23.00;99.90
24408;DHT22;12542;50.924;4.516;2023-08-31T14:33:09;23.10;99.90
24408;DHT22;12542;50.924;4.516;2023-08-31T14:35:40;23.30;99.90
24408;DHT22;12542;50.924;4.516;2023-08-31T14:38:10;23.40;99.90
24408;DHT22;12542;50.924;4.516;2023-08-31T14:40:38;23.40;99.90
24408;DHT22;12542;50.924;4.516;2023-08-31T14:43:06;23.40;99.90
24408;DHT22;12542;50.924;4.516;2023-08-31T14:45:34;23.60;99.90
24408;DHT22;12542;50.924;4.516;2023-08-31T14:48:00;23.30;99.90
24408;DHT22;12542;50.924;4.516;2023-08-31T14:50:25;23.40;99.90
24408;DHT22;12542;50.924;4.516;2023-08-31T14:52:51;23.20;99.90
24408;DHT22;12542;50.924;4.516;2023-08-31T14:55:17;22.90;99.90
24408;DHT22;12542;50.924;4.516;2023-08-31T14:57:42;22.50;99.90
24408;DHT22;12542;50.924;4.516;2023-08-31T15:00:09;22.00;99.90
24408;DHT22;12542;50.924;4.516;2023-08-31T15:02:35;21.90;99.90
24408;DHT22;12542;50.924;4.516;2023-08-31T15:05:00;21.90;99.90
24408;DHT22;12542;50.924;4.516;2023-08-31T15:07:26;22.10;99.90
24408;DHT22;12542;50.924;4.516;2023-08-31T15:09:54;22.40;99.90
24408;DHT22;12542;50.924;4.516;2023-08-31T15:12:20;22.50;99.90
24408;DHT22;12542;50.924;4.516;2023-08-31T15:14:46;22.50;99.90
24408;DHT22;12542;50.924;4.516;2023-08-31T15:17:12;22.50;99.90
24408;DHT22;12542;50.924;4.516;2023-08-31T15:19:37;22.40;99.90
24408;DHT22;12542;50.924;4.516;2023-08-31T15:22:03;22.10;99.90
24408;DHT22;12542;50.924;4.516;2023-08-31T15:24:30;22.00;99.90
24408;DHT22;12542;50.924;4.516;2023-08-31T15:26:55;21.90;99.90
24408;DHT22;12542;50.924;4.516;2023-08-31T15:29:22;21.80;99.90
24408;DHT22;12542;50.924;4.516;2023-08-31T15:31:48;21.90;99.90
24408;DHT22;12542;50.924;4.516;2023-08-31T15:34:13;22.10;99.90
24408;DHT22;12542;50.924;4.516;2023-08-31T15:36:39;22.10;99.90
24408;DHT22;12542;50.924;4.516;2023-08-31T15:39:06;22.30;99.90
24408;DHT22;12542;50.924;4.516;2023-08-31T15:41:33;22.20;99.90
24408;DHT22;12542;50.924;4.516;2023-08-31T15:44:02;22.20;99.90
24408;DHT22;12542;50.924;4.516;2023-08-31T15:46:29;22.00;99.90
24408;DHT22;12542;50.924;4.516;2023-08-31T15:48:54;22.10;99.90
24408;DHT22;12542;50.924;4.516;2023-08-31T15:51:20;22.10;99.90
24408;DHT22;12542;50.924;4.516;2023-08-31T15:53:46;22.00;99.90